sensor_id;sensor_type;location;lat;lon;timestamp;P1;durP1;ratioP1;P2;durP2;ratioP2
4278;SDS011;2153;47.744;10.580;2023-03-14T00:00:18;11.43;;;1.47;;
4278;SDS011;2153;47.744;10.580;2023-03-14T00:02:44;12.03;;;1.90;;
4278;SDS011;2153;47.744;10.580;2023-03-14T00:05:11;16.53;;;1.43;;
4278;SDS011;2153;47.744;10.580;2023-03-14T00:07:39;11.87;;;1.73;;
4278;SDS011;2153;47.744;10.580;2023-03-14T00:10:07;12.90;;;1.30;;
4278;SDS011;2153;47.744;10.580;2023-03-14T00:12:37;10.90;;;1.43;;
4278;SDS011;2153;47.744;10.580;2023-03-14T00:15:04;11.50;;;1.60;;
4278;SDS011;2153;47.744;10.580;2023-03-14T00:17:33;11.17;;;1.37;;
4278;SDS011;2153;47.744;10.580;2023-03-14T00:20:00;12.10;;;1.70;;
4278;SDS011;2153;47.744;10.580;2023-03-14T00:22:29;12.10;;;1.53;;
4278;SDS011;2153;47.744;10.580;2023-03-14T00:24:56;11.80;;;1.67;;
4278;SDS011;2153;47.744;10.580;2023-03-14T00:27:23;10.97;;;1.10;;
4278;SDS011;2153;47.744;10.580;2023-03-14T00:29:51;10.80;;;1.40;;
4278;SDS011;2153;47.744;10.580;2023-03-14T00:32:17;12.13;;;1.57;;
4278;SDS011;2153;47.744;10.580;2023-03-14T00:34:44;10.90;;;1.20;;
4278;SDS011;2153;47.744;10.580;2023-03-14T00:37:11;10.90;;;1.30;;
4278;SDS011;2153;47.744;10.580;2023-03-14T00:39:38;11.20;;;1.57;;
4278;SDS011;2153;47.744;10.580;2023-03-14T00:42:04;10.93;;;1.60;;
4278;SDS011;2153;47.744;10.580;2023-03-14T00:44:31;11.43;;;1.80;;
4278;SDS011;2153;47.744;10.580;2023-03-14T00:47:01;12.90;;;1.87;;
4278;SDS011;2153;47.744;10.580;2023-03-14T00:49:27;12.87;;;1.60;;
4278;SDS011;2153;47.744;10.580;2023-03-14T00:51:54;11.17;;;1.60;;
4278;SDS011;2153;47.744;10.580;2023-03-14T00:54:21;11.17;;;1.00;;
4278;SDS011;2153;47.744;10.580;2023-03-14T00:56:48;10.20;;;1.10;;
4278;SDS011;2153;47.744;10.580;2023-03-14T00:59:15;12.60;;;0.80;;
4278;SDS011;2153;47.744;10.580;2023-03-14T01:01:42;10.17;;;0.87;;
4278;SDS011;2153;47.744;10.580;2023-03-14T01:04:11;11.33;;;0.60;;
4278;SDS011;2153;47.744;10.580;2023-03-14T01:06:38;9.70;;;0.60;;
4278;SDS011;2153;47.744;10.580;2023-03-14T01:09:05;11.30;;;0.60;;
4278;SDS011;2153;47.744;10.580;2023-03-14T01:11:32;9.87;;;0.70;;
4278;SDS011;2153;47.744;10.580;2023-03-14T01:14:00;9.93;;;0.80;;
4278;SDS011;2153;47.744;10.580;2023-03-14T01:16:29;9.60;;;0.50;;
4278;SDS011;2153;47.744;10.580;2023-03-14T01:18:58;10.10;;;0.80;;
4278;SDS011;2153;47.744;10.580;2023-03-14T01:21:27;9.70;;;0.60;;
4278;SDS011;2153;47.744;10.580;2023-03-14T01:23:55;9.67;;;0.60;;
4278;SDS011;2153;47.744;10.580;2023-03-14T01:26:25;9.70;;;0.70;;
4278;SDS011;2153;47.744;10.580;2023-03-14T01:28:53;12.63;;;0.70;;
4278;SDS011;2153;47.744;10.580;2023-03-14T01:31:21;13.50;;;0.80;;
4278;SDS011;2153;47.744;10.580;2023-03-14T01:33:48;10.00;;;0.60;;
4278;SDS011;2153;47.744;10.580;2023-03-14T01:36:15;10.13;;;0.90;;
4278;SDS011;2153;47.744;10.580;2023-03-14T01:38:44;9.73;;;0.67;;
4278;SDS011;2153;47.744;10.580;2023-03-14T01:41:12;9.73;;;0.60;;
4278;SDS011;2153;47.744;10.580;2023-03-14T01:43:41;11.13;;;0.80;;
4278;SDS011;2153;47.744;10.580;2023-03-14T01:46:18;11.33;;;0.70;;
4278;SDS011;2153;47.744;10.580;2023-03-14T01:48:58;9.83;;;0.57;;
4278;SDS011;2153;47.744;10.580;2023-03-14T01:51:30;12.87;;;0.60;;
4278;SDS011;2153;47.744;10.580;2023-03-14T01:54:05;9.37;;;0.50;;
4278;SDS011;2153;47.744;10.580;2023-03-14T01:56:36;9.80;;;0.60;;
4278;SDS011;2153;47.744;10.580;2023-03-14T01:59:05;9.77;;;0.73;;
4278;SDS011;2153;47.744;10.580;2023-03-14T02:01:34;11.80;;;0.70;;
4278;SDS011;2153;47.744;10.580;2023-03-14T02:04:03;11.27;;;0.73;;
4278;SDS011;2153;47.744;10.580;2023-03-14T02:06:33;9.60;;;0.60;;
4278;SDS011;2153;47.744;10.580;2023-03-14T02:09:06;9.63;;;0.63;;
4278;SDS011;2153;47.744;10.580;2023-03-14T02:11:33;9.50;;;0.50;;
4278;SDS011;2153;47.744;10.580;2023-03-14T02:14:00;9.57;;;0.60;;
4278;SDS011;2153;47.744;10.580;2023-03-14T02:16:28;9.67;;;0.53;;
4278;SDS011;2153;47.744;10.580;2023-03-14T02:18:55;15.80;;;0.60;;
4278;SDS011;2153;47.744;10.580;2023-03-14T02:21:23;9.37;;;0.50;;
4278;SDS011;2153;47.744;10.580;2023-03-14T02:23:58;9.50;;;0.50;;
4278;SDS011;2153;47.744;10.580;2023-03-14T02:26:34;9.47;;;0.50;;
4278;SDS011;2153;47.744;10.580;2023-03-14T02:29:06;9.47;;;0.53;;
4278;SDS011;2153;47.744;10.580;2023-03-14T02:31:33;9.37;;;0.50;;
4278;SDS011;2153;47.744;10.580;2023-03-14T02:34:00;10.00;;;0.80;;
4278;SDS011;2153;47.744;10.580;2023-03-14T02:36:28;9.37;;;0.50;;
4278;SDS011;2153;47.744;10.580;2023-03-14T02:38:58;9.50;;;0.53;;
4278;SDS011;2153;47.744;10.580;2023-03-14T02:41:31;9.80;;;0.77;;
4278;SDS011;2153;47.744;10.580;2023-03-14T02:43:57;9.80;;;0.60;;
4278;SDS011;2153;47.744;10.580;2023-03-14T02:46:26;9.33;;;0.50;;
4278;SDS011;2153;47.744;10.580;2023-03-14T02:48:53;9.37;;;0.50;;
4278;SDS011;2153;47.744;10.580;2023-03-14T02:51:24;9.40;;;0.50;;
4278;SDS011;2153;47.744;10.580;2023-03-14T02:53:53;9.40;;;0.50;;
4278;SDS011;2153;47.744;10.580;2023-03-14T02:56:20;9.53;;;0.50;;
4278;SDS011;2153;47.744;10.580;2023-03-14T02:58:47;9.37;;;0.50;;
4278;SDS011;2153;47.744;10.580;2023-03-14T03:01:13;9.63;;;0.50;;
4278;SDS011;2153;47.744;10.580;2023-03-14T03:03:41;9.43;;;0.40;;
4278;SDS011;2153;47.744;10.580;2023-03-14T03:06:08;9.90;;;0.70;;
4278;SDS011;2153;47.744;10.580;2023-03-14T03:08:35;9.33;;;0.57;;
4278;SDS011;2153;47.744;10.580;2023-03-14T03:11:02;9.40;;;0.50;;
4278;SDS011;2153;47.744;10.580;2023-03-14T03:13:29;9.33;;;0.50;;
4278;SDS011;2153;47.744;10.580;2023-03-14T03:15:56;11.03;;;0.57;;
4278;SDS011;2153;47.744;10.580;2023-03-14T03:18:22;11.10;;;0.57;;
4278;SDS011;2153;47.744;10.580;2023-03-14T03:20:51;9.33;;;0.60;;
4278;SDS011;2153;47.744;10.580;2023-03-14T03:23:17;9.80;;;0.60;;
4278;SDS011;2153;47.744;10.580;2023-03-14T03:25:47;9.30;;;0.50;;
4278;SDS011;2153;47.744;10.580;2023-03-14T03:28:15;9.27;;;0.50;;
4278;SDS011;2153;47.744;10.580;2023-03-14T03:30:42;9.30;;;0.60;;
4278;SDS011;2153;47.744;10.580;2023-03-14T03:33:09;9.17;;;0.50;;
4278;SDS011;2153;47.744;10.580;2023-03-14T03:35:41;9.07;;;0.50;;
4278;SDS011;2153;47.744;10.580;2023-03-14T03:38:10;9.27;;;0.50;;
4278;SDS011;2153;47.744;10.580;2023-03-14T03:40:37;11.70;;;0.63;;
4278;SDS011;2153;47.744;10.580;2023-03-14T03:43:04;9.30;;;0.50;;
4278;SDS011;2153;47.744;10.580;2023-03-14T03:45:31;9.40;;;0.60;;
4278;SDS011;2153;47.744;10.580;2023-03-14T03:47:57;9.37;;;0.50;;
4278;SDS011;2153;47.744;10.580;2023-03-14T03:50:24;9.47;;;0.60;;
4278;SDS011;2153;47.744;10.580;2023-03-14T03:52:51;9.23;;;0.50;;
4278;SDS011;2153;47.744;10.580;2023-03-14T03:55:19;9.13;;;0.50;;
4278;SDS011;2153;47.744;10.580;2023-03-14T03:57:46;9.17;;;0.50;;
4278;SDS011;2153;47.744;10.580;2023-03-14T04:00:13;9.20;;;0.50;;
4278;SDS011;2153;47.744;10.580;2023-03-14T04:02:39;10.43;;;0.60;;
4278;SDS011;2153;47.744;10.580;2023-03-14T04:05:06;9.30;;;0.53;;
4278;SDS011;2153;47.744;10.580;2023-03-14T04:07:34;9.53;;;0.67;;
4278;SDS011;2153;47.744;10.580;2023-03-14T04:10:00;9.43;;;0.67;;
4278;SDS011;2153;47.744;10.580;2023-03-14T04:12:28;9.43;;;0.70;;
4278;SDS011;2153;47.744;10.580;2023-03-14T04:14:55;9.20;;;0.60;;
4278;SDS011;2153;47.744;10.580;2023-03-14T04:17:22;9.30;;;0.70;;
4278;SDS011;2153;47.744;10.580;2023-03-14T04:19:49;9.60;;;0.60;;
4278;SDS011;2153;47.744;10.580;2023-03-14T04:22:18;9.53;;;0.60;;
4278;SDS011;2153;47.744;10.580;2023-03-14T04:24:45;9.17;;;0.50;;
4278;SDS011;2153;47.744;10.580;2023-03-14T04:27:11;9.20;;;0.50;;
4278;SDS011;2153;47.744;10.580;2023-03-14T04:29:40;9.27;;;0.50;;
4278;SDS011;2153;47.744;10.580;2023-03-14T04:32:07;9.17;;;0.50;;
4278;SDS011;2153;47.744;10.580;2023-03-14T04:34:34;9.17;;;0.50;;
4278;SDS011;2153;47.744;10.580;2023-03-14T04:37:01;10.00;;;0.87;;
4278;SDS011;2153;47.744;10.580;2023-03-14T04:39:28;9.70;;;0.60;;
4278;SDS011;2153;47.744;10.580;2023-03-14T04:41:55;9.80;;;0.77;;
4278;SDS011;2153;47.744;10.580;2023-03-14T04:44:21;10.13;;;0.70;;
4278;SDS011;2153;47.744;10.580;2023-03-14T04:46:49;10.73;;;1.27;;
4278;SDS011;2153;47.744;10.580;2023-03-14T04:49:16;9.80;;;0.80;;
4278;SDS011;2153;47.744;10.580;2023-03-14T04:51:43;10.20;;;1.00;;
4278;SDS011;2153;47.744;10.580;2023-03-14T04:54:10;10.33;;;1.03;;
4278;SDS011;2153;47.744;10.580;2023-03-14T04:56:36;9.43;;;0.70;;
4278;SDS011;2153;47.744;10.580;2023-03-14T04:59:03;9.33;;;0.60;;
4278;SDS011;2153;47.744;10.580;2023-03-14T05:01:30;9.10;;;0.60;;
4278;SDS011;2153;47.744;10.580;2023-03-14T05:03:58;9.90;;;0.60;;
4278;SDS011;2153;47.744;10.580;2023-03-14T05:06:25;9.40;;;0.60;;
4278;SDS011;2153;47.744;10.580;2023-03-14T05:08:52;9.13;;;0.50;;
4278;SDS011;2153;47.744;10.580;2023-03-14T05:11:19;9.23;;;0.40;;
4278;SDS011;2153;47.744;10.580;2023-03-14T05:13:45;9.23;;;0.50;;
4278;SDS011;2153;47.744;10.580;2023-03-14T05:16:12;9.60;;;0.50;;
4278;SDS011;2153;47.744;10.580;2023-03-14T05:18:39;9.23;;;0.50;;
4278;SDS011;2153;47.744;10.580;2023-03-14T05:21:07;9.80;;;1.10;;
4278;SDS011;2153;47.744;10.580;2023-03-14T05:23:33;9.57;;;0.90;;
4278;SDS011;2153;47.744;10.580;2023-03-14T05:26:00;10.93;;;1.60;;
4278;SDS011;2153;47.744;10.580;2023-03-14T05:28:27;11.33;;;1.50;;
4278;SDS011;2153;47.744;10.580;2023-03-14T05:30:54;9.03;;;0.50;;
4278;SDS011;2153;47.744;10.580;2023-03-14T05:33:20;9.30;;;0.50;;
4278;SDS011;2153;47.744;10.580;2023-03-14T05:35:47;9.50;;;0.50;;
4278;SDS011;2153;47.744;10.580;2023-03-14T05:38:15;9.23;;;0.50;;
4278;SDS011;2153;47.744;10.580;2023-03-14T05:40:42;9.23;;;0.60;;
4278;SDS011;2153;47.744;10.580;2023-03-14T05:43:08;9.13;;;0.50;;
4278;SDS011;2153;47.744;10.580;2023-03-14T05:45:35;9.03;;;0.60;;
4278;SDS011;2153;47.744;10.580;2023-03-14T05:48:02;9.40;;;0.60;;
4278;SDS011;2153;47.744;10.580;2023-03-14T05:50:29;9.27;;;0.80;;
4278;SDS011;2153;47.744;10.580;2023-03-14T05:52:56;10.40;;;1.20;;
4278;SDS011;2153;47.744;10.580;2023-03-14T05:55:24;11.47;;;1.63;;
4278;SDS011;2153;47.744;10.580;2023-03-14T05:57:52;9.30;;;0.70;;
4278;SDS011;2153;47.744;10.580;2023-03-14T06:00:19;11.33;;;1.90;;
4278;SDS011;2153;47.744;10.580;2023-03-14T06:02:46;10.83;;;1.40;;
4278;SDS011;2153;47.744;10.580;2023-03-14T06:05:13;11.30;;;2.10;;
4278;SDS011;2153;47.744;10.580;2023-03-14T06:07:40;10.60;;;1.60;;
4278;SDS011;2153;47.744;10.580;2023-03-14T06:10:07;10.30;;;1.57;;
4278;SDS011;2153;47.744;10.580;2023-03-14T06:12:35;9.50;;;0.87;;
4278;SDS011;2153;47.744;10.580;2023-03-14T06:15:02;9.53;;;0.90;;
4278;SDS011;2153;47.744;10.580;2023-03-14T06:17:29;10.33;;;0.90;;
4278;SDS011;2153;47.744;10.580;2023-03-14T06:19:56;9.87;;;1.10;;
4278;SDS011;2153;47.744;10.580;2023-03-14T06:22:23;9.30;;;0.70;;
4278;SDS011;2153;47.744;10.580;2023-03-14T06:24:49;13.23;;;2.63;;
4278;SDS011;2153;47.744;10.580;2023-03-14T06:27:16;12.50;;;2.70;;
4278;SDS011;2153;47.744;10.580;2023-03-14T06:29:44;12.07;;;2.20;;
4278;SDS011;2153;47.744;10.580;2023-03-14T06:32:11;12.10;;;2.73;;
4278;SDS011;2153;47.744;10.580;2023-03-14T06:34:38;10.03;;;1.20;;
4278;SDS011;2153;47.744;10.580;2023-03-14T06:37:05;9.90;;;0.90;;
4278;SDS011;2153;47.744;10.580;2023-03-14T06:39:32;9.37;;;0.70;;
4278;SDS011;2153;47.744;10.580;2023-03-14T06:41:59;9.27;;;0.60;;
4278;SDS011;2153;47.744;10.580;2023-03-14T06:44:26;12.03;;;1.10;;
4278;SDS011;2153;47.744;10.580;2023-03-14T06:46:54;9.27;;;0.80;;
4278;SDS011;2153;47.744;10.580;2023-03-14T06:49:20;9.40;;;0.70;;
4278;SDS011;2153;47.744;10.580;2023-03-14T06:51:47;11.53;;;2.27;;
4278;SDS011;2153;47.744;10.580;2023-03-14T06:54:14;14.90;;;0.90;;
4278;SDS011;2153;47.744;10.580;2023-03-14T06:56:41;10.10;;;0.80;;
4278;SDS011;2153;47.744;10.580;2023-03-14T06:59:07;9.60;;;0.60;;
4278;SDS011;2153;47.744;10.580;2023-03-14T07:01:34;11.00;;;1.03;;
4278;SDS011;2153;47.744;10.580;2023-03-14T07:04:02;9.27;;;0.50;;
4278;SDS011;2153;47.744;10.580;2023-03-14T07:06:29;11.60;;;0.83;;
4278;SDS011;2153;47.744;10.580;2023-03-14T07:08:56;9.40;;;0.50;;
4278;SDS011;2153;47.744;10.580;2023-03-14T07:11:23;9.23;;;0.60;;
4278;SDS011;2153;47.744;10.580;2023-03-14T07:13:50;9.17;;;0.50;;
4278;SDS011;2153;47.744;10.580;2023-03-14T07:16:17;10.30;;;0.67;;
4278;SDS011;2153;47.744;10.580;2023-03-14T07:18:44;9.40;;;0.70;;
4278;SDS011;2153;47.744;10.580;2023-03-14T07:21:12;9.60;;;0.70;;
4278;SDS011;2153;47.744;10.580;2023-03-14T07:23:39;9.83;;;0.63;;
4278;SDS011;2153;47.744;10.580;2023-03-14T07:26:06;10.10;;;0.70;;
4278;SDS011;2153;47.744;10.580;2023-03-14T07:28:33;9.50;;;0.60;;
4278;SDS011;2153;47.744;10.580;2023-03-14T07:31:00;9.57;;;0.70;;
4278;SDS011;2153;47.744;10.580;2023-03-14T07:33:26;10.33;;;0.97;;
4278;SDS011;2153;47.744;10.580;2023-03-14T07:35:53;10.77;;;1.30;;
4278;SDS011;2153;47.744;10.580;2023-03-14T07:38:21;13.20;;;2.37;;
4278;SDS011;2153;47.744;10.580;2023-03-14T07:40:48;10.63;;;1.60;;
4278;SDS011;2153;47.744;10.580;2023-03-14T07:43:15;10.80;;;1.70;;
4278;SDS011;2153;47.744;10.580;2023-03-14T07:45:44;10.40;;;1.20;;
4278;SDS011;2153;47.744;10.580;2023-03-14T07:48:11;14.43;;;2.53;;
4278;SDS011;2153;47.744;10.580;2023-03-14T07:50:38;15.10;;;1.47;;
4278;SDS011;2153;47.744;10.580;2023-03-14T07:53:05;12.17;;;1.50;;
4278;SDS011;2153;47.744;10.580;2023-03-14T07:55:33;10.83;;;1.20;;
4278;SDS011;2153;47.744;10.580;2023-03-14T07:58:00;11.00;;;1.50;;
4278;SDS011;2153;47.744;10.580;2023-03-14T08:00:26;12.20;;;2.30;;
4278;SDS011;2153;47.744;10.580;2023-03-14T08:02:53;12.10;;;2.00;;
4278;SDS011;2153;47.744;10.580;2023-03-14T08:05:20;11.00;;;1.77;;
4278;SDS011;2153;47.744;10.580;2023-03-14T08:07:47;10.83;;;1.40;;
4278;SDS011;2153;47.744;10.580;2023-03-14T08:10:13;10.27;;;1.20;;
4278;SDS011;2153;47.744;10.580;2023-03-14T08:12:48;11.00;;;1.00;;
4278;SDS011;2153;47.744;10.580;2023-03-14T08:15:14;11.40;;;0.83;;
4278;SDS011;2153;47.744;10.580;2023-03-14T08:17:41;9.77;;;0.67;;
4278;SDS011;2153;47.744;10.580;2023-03-14T08:20:08;9.87;;;0.80;;
4278;SDS011;2153;47.744;10.580;2023-03-14T08:22:37;11.60;;;1.27;;
4278;SDS011;2153;47.744;10.580;2023-03-14T08:25:05;10.73;;;1.40;;
4278;SDS011;2153;47.744;10.580;2023-03-14T08:27:32;10.70;;;1.37;;
4278;SDS011;2153;47.744;10.580;2023-03-14T08:30:00;11.80;;;1.50;;
4278;SDS011;2153;47.744;10.580;2023-03-14T08:32:27;12.03;;;1.50;;
4278;SDS011;2153;47.744;10.580;2023-03-14T08:34:54;10.00;;;0.97;;
4278;SDS011;2153;47.744;10.580;2023-03-14T08:37:20;10.10;;;0.90;;
4278;SDS011;2153;47.744;10.580;2023-03-14T08:39:49;12.43;;;2.10;;
4278;SDS011;2153;47.744;10.580;2023-03-14T08:42:16;11.87;;;1.80;;
4278;SDS011;2153;47.744;10.580;2023-03-14T08:44:43;13.70;;;2.43;;
4278;SDS011;2153;47.744;10.580;2023-03-14T08:47:11;12.00;;;2.27;;
4278;SDS011;2153;47.744;10.580;2023-03-14T08:49:38;11.93;;;1.90;;
4278;SDS011;2153;47.744;10.580;2023-03-14T08:52:05;11.30;;;1.80;;
4278;SDS011;2153;47.744;10.580;2023-03-14T08:54:31;14.00;;;2.93;;
4278;SDS011;2153;47.744;10.580;2023-03-14T08:56:58;13.57;;;2.10;;
4278;SDS011;2153;47.744;10.580;2023-03-14T08:59:25;10.90;;;1.33;;
4278;SDS011;2153;47.744;10.580;2023-03-14T09:01:51;10.60;;;1.10;;
4278;SDS011;2153;47.744;10.580;2023-03-14T09:04:20;9.77;;;0.63;;
4278;SDS011;2153;47.744;10.580;2023-03-14T09:06:47;11.40;;;1.20;;
4278;SDS011;2153;47.744;10.580;2023-03-14T09:09:14;10.90;;;0.70;;
4278;SDS011;2153;47.744;10.580;2023-03-14T09:11:41;10.27;;;0.80;;
4278;SDS011;2153;47.744;10.580;2023-03-14T09:14:07;10.50;;;0.83;;
4278;SDS011;2153;47.744;10.580;2023-03-14T09:16:34;12.67;;;0.93;;
4278;SDS011;2153;47.744;10.580;2023-03-14T09:19:01;11.50;;;1.43;;
4278;SDS011;2153;47.744;10.580;2023-03-14T09:21:29;10.50;;;0.60;;
4278;SDS011;2153;47.744;10.580;2023-03-14T09:23:56;11.60;;;1.53;;
4278;SDS011;2153;47.744;10.580;2023-03-14T09:26:22;11.50;;;1.00;;
4278;SDS011;2153;47.744;10.580;2023-03-14T09:28:49;11.20;;;1.10;;
4278;SDS011;2153;47.744;10.580;2023-03-14T09:31:16;10.67;;;0.77;;
4278;SDS011;2153;47.744;10.580;2023-03-14T09:33:42;12.37;;;0.90;;
4278;SDS011;2153;47.744;10.580;2023-03-14T09:36:10;10.90;;;0.83;;
4278;SDS011;2153;47.744;10.580;2023-03-14T09:38:38;10.90;;;0.80;;
4278;SDS011;2153;47.744;10.580;2023-03-14T09:41:11;10.77;;;0.70;;
4278;SDS011;2153;47.744;10.580;2023-03-14T09:43:40;10.83;;;0.70;;
4278;SDS011;2153;47.744;10.580;2023-03-14T09:46:09;10.73;;;0.70;;
4278;SDS011;2153;47.744;10.580;2023-03-14T09:48:37;11.20;;;0.80;;
4278;SDS011;2153;47.744;10.580;2023-03-14T09:51:04;10.57;;;0.60;;
4278;SDS011;2153;47.744;10.580;2023-03-14T09:53:35;10.60;;;0.77;;
4278;SDS011;2153;47.744;10.580;2023-03-14T09:56:08;10.53;;;0.70;;
4278;SDS011;2153;47.744;10.580;2023-03-14T09:58:40;10.37;;;0.57;;
4278;SDS011;2153;47.744;10.580;2023-03-14T10:01:09;10.50;;;0.70;;
4278;SDS011;2153;47.744;10.580;2023-03-14T10:03:39;10.80;;;0.80;;
4278;SDS011;2153;47.744;10.580;2023-03-14T10:06:10;10.20;;;0.60;;
4278;SDS011;2153;47.744;10.580;2023-03-14T10:08:40;10.30;;;0.70;;
4278;SDS011;2153;47.744;10.580;2023-03-14T10:11:10;11.63;;;1.00;;
4278;SDS011;2153;47.744;10.580;2023-03-14T10:13:46;10.33;;;0.60;;
4278;SDS011;2153;47.744;10.580;2023-03-14T10:16:15;10.27;;;0.50;;
4278;SDS011;2153;47.744;10.580;2023-03-14T10:18:43;10.17;;;0.60;;
4278;SDS011;2153;47.744;10.580;2023-03-14T10:21:16;11.10;;;0.70;;
4278;SDS011;2153;47.744;10.580;2023-03-14T10:23:48;10.30;;;0.60;;
4278;SDS011;2153;47.744;10.580;2023-03-14T10:26:15;10.23;;;0.60;;
4278;SDS011;2153;47.744;10.580;2023-03-14T10:28:44;10.30;;;0.73;;
4278;SDS011;2153;47.744;10.580;2023-03-14T10:31:12;10.27;;;0.60;;
4278;SDS011;2153;47.744;10.580;2023-03-14T10:33:40;11.10;;;0.70;;
4278;SDS011;2153;47.744;10.580;2023-03-14T10:36:14;10.57;;;0.60;;
4278;SDS011;2153;47.744;10.580;2023-03-14T10:38:45;11.50;;;1.00;;
4278;SDS011;2153;47.744;10.580;2023-03-14T10:41:17;10.47;;;0.60;;
4278;SDS011;2153;47.744;10.580;2023-03-14T10:43:45;10.40;;;0.73;;
4278;SDS011;2153;47.744;10.580;2023-03-14T10:46:17;10.40;;;0.73;;
4278;SDS011;2153;47.744;10.580;2023-03-14T10:48:44;13.20;;;0.80;;
4278;SDS011;2153;47.744;10.580;2023-03-14T10:51:12;10.27;;;0.70;;
4278;SDS011;2153;47.744;10.580;2023-03-14T10:53:46;10.50;;;0.80;;
4278;SDS011;2153;47.744;10.580;2023-03-14T10:56:15;10.60;;;0.80;;
4278;SDS011;2153;47.744;10.580;2023-03-14T10:58:44;10.50;;;0.80;;
4278;SDS011;2153;47.744;10.580;2023-03-14T11:01:18;10.43;;;0.77;;
4278;SDS011;2153;47.744;10.580;2023-03-14T11:03:54;10.63;;;0.90;;
4278;SDS011;2153;47.744;10.580;2023-03-14T11:06:26;10.17;;;0.60;;
4278;SDS011;2153;47.744;10.580;2023-03-14T11:09:02;10.80;;;0.80;;
4278;SDS011;2153;47.744;10.580;2023-03-14T11:11:35;10.40;;;0.70;;
4278;SDS011;2153;47.744;10.580;2023-03-14T11:14:08;10.63;;;0.70;;
4278;SDS011;2153;47.744;10.580;2023-03-14T11:16:45;11.43;;;0.80;;
4278;SDS011;2153;47.744;10.580;2023-03-14T11:19:37;10.43;;;0.67;;
4278;SDS011;2153;47.744;10.580;2023-03-14T11:22:13;10.70;;;0.80;;
4278;SDS011;2153;47.744;10.580;2023-03-14T11:24:52;10.73;;;0.70;;
4278;SDS011;2153;47.744;10.580;2023-03-14T11:27:32;12.97;;;0.87;;
4278;SDS011;2153;47.744;10.580;2023-03-14T11:30:13;10.70;;;0.67;;
4278;SDS011;2153;47.744;10.580;2023-03-14T11:32:45;10.27;;;0.77;;
4278;SDS011;2153;47.744;10.580;2023-03-14T11:35:17;10.80;;;0.70;;
4278;SDS011;2153;47.744;10.580;2023-03-14T11:37:51;11.10;;;1.00;;
4278;SDS011;2153;47.744;10.580;2023-03-14T11:40:22;13.00;;;1.00;;
4278;SDS011;2153;47.744;10.580;2023-03-14T11:42:54;10.20;;;0.60;;
4278;SDS011;2153;47.744;10.580;2023-03-14T11:45:27;10.70;;;0.80;;
4278;SDS011;2153;47.744;10.580;2023-03-14T11:48:05;10.37;;;0.70;;
4278;SDS011;2153;47.744;10.580;2023-03-14T11:50:39;11.43;;;0.77;;
4278;SDS011;2153;47.744;10.580;2023-03-14T11:53:09;10.50;;;0.73;;
4278;SDS011;2153;47.744;10.580;2023-03-14T11:55:40;10.33;;;0.60;;
4278;SDS011;2153;47.744;10.580;2023-03-14T11:58:11;11.10;;;0.60;;
4278;SDS011;2153;47.744;10.580;2023-03-14T12:00:41;10.30;;;0.60;;
4278;SDS011;2153;47.744;10.580;2023-03-14T12:03:11;11.30;;;0.70;;
4278;SDS011;2153;47.744;10.580;2023-03-14T12:05:46;10.70;;;0.77;;
4278;SDS011;2153;47.744;10.580;2023-03-14T12:08:38;12.20;;;0.60;;
4278;SDS011;2153;47.744;10.580;2023-03-14T12:11:10;10.47;;;0.70;;
4278;SDS011;2153;47.744;10.580;2023-03-14T12:13:41;10.53;;;0.70;;
4278;SDS011;2153;47.744;10.580;2023-03-14T12:16:30;11.00;;;0.60;;
4278;SDS011;2153;47.744;10.580;2023-03-14T12:19:13;10.43;;;0.70;;
4278;SDS011;2153;47.744;10.580;2023-03-14T12:21:46;10.43;;;0.57;;
4278;SDS011;2153;47.744;10.580;2023-03-14T12:24:17;13.03;;;0.70;;
4278;SDS011;2153;47.744;10.580;2023-03-14T12:26:48;12.50;;;0.80;;
4278;SDS011;2153;47.744;10.580;2023-03-14T12:29:20;10.43;;;0.60;;
4278;SDS011;2153;47.744;10.580;2023-03-14T12:31:47;10.63;;;0.93;;
4278;SDS011;2153;47.744;10.580;2023-03-14T12:34:31;10.40;;;0.70;;
4278;SDS011;2153;47.744;10.580;2023-03-14T12:37:05;10.63;;;0.70;;
4278;SDS011;2153;47.744;10.580;2023-03-14T12:39:47;11.40;;;0.70;;
4278;SDS011;2153;47.744;10.580;2023-03-14T12:42:36;10.47;;;0.80;;
4278;SDS011;2153;47.744;10.580;2023-03-14T12:45:15;10.60;;;0.83;;
4278;SDS011;2153;47.744;10.580;2023-03-14T12:47:52;10.50;;;0.80;;
4278;SDS011;2153;47.744;10.580;2023-03-14T12:50:24;12.33;;;1.20;;
4278;SDS011;2153;47.744;10.580;2023-03-14T12:52:57;10.70;;;1.00;;
4278;SDS011;2153;47.744;10.580;2023-03-14T12:55:33;10.67;;;0.80;;
4278;SDS011;2153;47.744;10.580;2023-03-14T12:58:07;10.20;;;0.83;;
4278;SDS011;2153;47.744;10.580;2023-03-14T13:00:40;10.20;;;0.70;;
4278;SDS011;2153;47.744;10.580;2023-03-14T13:03:17;10.07;;;0.70;;
4278;SDS011;2153;47.744;10.580;2023-03-14T13:05:53;10.10;;;0.60;;
4278;SDS011;2153;47.744;10.580;2023-03-14T13:08:32;10.13;;;0.80;;
4278;SDS011;2153;47.744;10.580;2023-03-14T13:11:01;10.77;;;0.60;;
4278;SDS011;2153;47.744;10.580;2023-03-14T13:13:30;10.60;;;0.70;;
4278;SDS011;2153;47.744;10.580;2023-03-14T13:16:01;9.97;;;0.70;;
4278;SDS011;2153;47.744;10.580;2023-03-14T13:18:30;9.90;;;0.60;;
4278;SDS011;2153;47.744;10.580;2023-03-14T13:21:02;9.80;;;0.60;;
4278;SDS011;2153;47.744;10.580;2023-03-14T13:23:31;10.50;;;0.80;;
4278;SDS011;2153;47.744;10.580;2023-03-14T13:26:00;9.87;;;0.63;;
4278;SDS011;2153;47.744;10.580;2023-03-14T13:28:29;9.80;;;0.70;;
4278;SDS011;2153;47.744;10.580;2023-03-14T13:30:57;9.97;;;0.60;;
4278;SDS011;2153;47.744;10.580;2023-03-14T13:33:27;9.63;;;0.60;;
4278;SDS011;2153;47.744;10.580;2023-03-14T13:35:55;9.90;;;0.70;;
4278;SDS011;2153;47.744;10.580;2023-03-14T13:38:24;10.00;;;0.90;;
4278;SDS011;2153;47.744;10.580;2023-03-14T13:40:53;10.10;;;0.80;;
4278;SDS011;2153;47.744;10.580;2023-03-14T13:43:25;9.73;;;0.70;;
4278;SDS011;2153;47.744;10.580;2023-03-14T13:45:56;10.10;;;0.60;;
4278;SDS011;2153;47.744;10.580;2023-03-14T13:48:31;9.77;;;0.50;;
4278;SDS011;2153;47.744;10.580;2023-03-14T13:51:00;11.40;;;0.70;;
4278;SDS011;2153;47.744;10.580;2023-03-14T13:53:30;9.57;;;0.50;;
4278;SDS011;2153;47.744;10.580;2023-03-14T13:56:00;9.67;;;0.60;;
4278;SDS011;2153;47.744;10.580;2023-03-14T13:58:28;10.97;;;0.60;;
4278;SDS011;2153;47.744;10.580;2023-03-14T14:00:58;9.70;;;0.60;;
4278;SDS011;2153;47.744;10.580;2023-03-14T14:03:33;10.10;;;0.70;;
4278;SDS011;2153;47.744;10.580;2023-03-14T14:06:02;9.80;;;0.80;;
4278;SDS011;2153;47.744;10.580;2023-03-14T14:08:32;9.33;;;0.60;;
4278;SDS011;2153;47.744;10.580;2023-03-14T14:11:00;9.90;;;0.90;;
4278;SDS011;2153;47.744;10.580;2023-03-14T14:13:30;9.97;;;0.80;;
4278;SDS011;2153;47.744;10.580;2023-03-14T14:16:00;9.50;;;0.70;;
4278;SDS011;2153;47.744;10.580;2023-03-14T14:18:29;9.43;;;0.60;;
4278;SDS011;2153;47.744;10.580;2023-03-14T14:20:59;9.90;;;1.00;;
4278;SDS011;2153;47.744;10.580;2023-03-14T14:23:26;9.70;;;0.77;;
4278;SDS011;2153;47.744;10.580;2023-03-14T14:25:56;9.50;;;0.70;;
4278;SDS011;2153;47.744;10.580;2023-03-14T14:28:26;9.60;;;0.80;;
4278;SDS011;2153;47.744;10.580;2023-03-14T14:31:00;9.60;;;0.83;;
4278;SDS011;2153;47.744;10.580;2023-03-14T14:33:30;9.70;;;0.90;;
4278;SDS011;2153;47.744;10.580;2023-03-14T14:36:12;16.33;;;2.70;;
4278;SDS011;2153;47.744;10.580;2023-03-14T14:38:48;9.60;;;0.80;;
4278;SDS011;2153;47.744;10.580;2023-03-14T14:41:16;9.83;;;0.87;;
4278;SDS011;2153;47.744;10.580;2023-03-14T14:43:42;10.20;;;1.10;;
4278;SDS011;2153;47.744;10.580;2023-03-14T14:46:09;9.80;;;1.00;;
4278;SDS011;2153;47.744;10.580;2023-03-14T14:48:43;10.07;;;1.00;;
4278;SDS011;2153;47.744;10.580;2023-03-14T14:51:10;10.17;;;1.10;;
4278;SDS011;2153;47.744;10.580;2023-03-14T14:53:37;10.63;;;1.20;;
4278;SDS011;2153;47.744;10.580;2023-03-14T14:56:06;10.37;;;1.20;;
4278;SDS011;2153;47.744;10.580;2023-03-14T14:58:43;10.43;;;1.10;;
4278;SDS011;2153;47.744;10.580;2023-03-14T15:01:12;9.40;;;0.73;;
4278;SDS011;2153;47.744;10.580;2023-03-14T15:03:43;11.40;;;1.00;;